Station Historical Data from Acurite Weather High Park Village Toronto
 
Daily Summary for March 23, 2019 Units:  Metric    English   Both
« Previous Day
Next Day »
Daily Weekly Monthly Yearly Custom
  Current: High: Low: Average:
Temperature: -4 °C -17.8 °C -4 °C -3.8 °C
Dew Point: -10.4 °C -17.8 °C -10.6 °C -9.9 °C
Humidity: 61% Humidity% 60% 60%
Wind Speed: 24.1km/h 0km/h 12.9km/h 21.2km/h
Wind Gust: 27.4km/h 0km/h - -
WindWest - - SW
Pressure: 1010.7 hPa 0 hPa 1009.4 hPa -
Precipitation: 0 mm      
Historical Graphs
 
 
Tabular Data for March 23, 2019
Time Temperature Dew Point Pressure Wind Wind Speed Wind Gust Humidity Rainfall Rate (Hourly) Conditions
-17.8 °C -17.8 °C 0 hPa Calm     Humidity% 0 mm SoftwareType W/m2 Conditions
00:04 -2.9 °C -9.1 °C 1009.7 hPa WNW 25.7 km/h 30.6 km/h 62% 0 mm myAcuRite W/m2
00:09 -2.9 °C -9.1 °C 1009.4 hPa West 16.1 km/h 25.7 km/h 62% 0 mm myAcuRite W/m2
00:14 -2.9 °C -9.1 °C 1009.4 hPa WNW 16.1 km/h 22.5 km/h 62% 0 mm myAcuRite W/m2
00:19 -2.9 °C -9.1 °C 1009.4 hPa WNW 22.5 km/h 29 km/h 62% 0 mm myAcuRite W/m2
00:24 -2.9 °C -9.1 °C 1009.4 hPa WNW 16.1 km/h 19.3 km/h 62% 0 mm myAcuRite W/m2
00:29 -2.9 °C -9.1 °C 1009.4 hPa NNE 22.5 km/h 24.1 km/h 62% 0 mm myAcuRite W/m2
00:34 -2.9 °C -9.1 °C 1009.7 hPa WSW 19.3 km/h 22.5 km/h 62% 0 mm myAcuRite W/m2
00:39 -2.9 °C -8.9 °C 1009.4 hPa West 25.7 km/h 29 km/h 63% 0 mm myAcuRite W/m2
00:44 -2.9 °C -8.9 °C 1009.7 hPa NW 20.9 km/h 22.5 km/h 63% 0 mm myAcuRite W/m2
00:49 -3 °C -8.8 °C 1009.7 hPa NW 24.1 km/h 27.4 km/h 64% 0 mm myAcuRite W/m2
00:54 -3 °C -9.1 °C 1009.7 hPa North 22.5 km/h 24.1 km/h 63% 0 mm myAcuRite W/m2
00:59 -3.1 °C -9.6 °C 1009.7 hPa NNW 30.6 km/h 30.6 km/h 61% 0 mm myAcuRite W/m2
01:04 -3.2 °C -9.7 °C 1009.7 hPa WNW 25.7 km/h 32.2 km/h 61% 0 mm myAcuRite W/m2
01:09 -3.2 °C -9.7 °C 1009.7 hPa NW 14.5 km/h 32.2 km/h 61% 0 mm myAcuRite W/m2
01:14 -3.2 °C -9.7 °C 1009.7 hPa NE 24.1 km/h 24.1 km/h 61% 0 mm myAcuRite W/m2
01:19 -3.3 °C -9.7 °C 1009.7 hPa SSE 14.5 km/h 22.5 km/h 61% 0 mm myAcuRite W/m2
01:24 -3.3 °C -9.7 °C 1009.7 hPa NW 17.7 km/h 24.1 km/h 61% 0 mm myAcuRite W/m2
01:29 -3.3 °C -9.7 °C 1010 hPa NW 27.4 km/h 27.4 km/h 61% 0 mm myAcuRite W/m2
01:34 -3.4 °C -9.8 °C 1010 hPa NW 16.1 km/h 24.1 km/h 61% 0 mm myAcuRite W/m2
01:39 -3.5 °C -9.9 °C 1010 hPa North 16.1 km/h 30.6 km/h 61% 0 mm myAcuRite W/m2
01:44 -3.5 °C -9.9 °C 1010 hPa North 17.7 km/h 24.1 km/h 61% 0 mm myAcuRite W/m2
01:49 -3.6 °C -10.1 °C 1010 hPa ENE 25.7 km/h 29 km/h 61% 0 mm myAcuRite W/m2
01:54 -3.6 °C -10.1 °C 1010.4 hPa NW 19.3 km/h 22.5 km/h 61% 0 mm myAcuRite W/m2
01:59 -3.7 °C -9.9 °C 1010.4 hPa ESE 19.3 km/h 29 km/h 62% 0 mm myAcuRite W/m2
02:04 -3.7 °C -9.9 °C 1010.4 hPa ENE 27.4 km/h 27.4 km/h 62% 0 mm myAcuRite W/m2
02:09 -3.8 °C -10.2 °C 1010.4 hPa NNW 32.2 km/h 32.2 km/h 61% 0 mm myAcuRite W/m2
02:14 -3.9 °C -10.3 °C 1010.4 hPa West 27.4 km/h 27.4 km/h 61% 0 mm myAcuRite W/m2
02:19 -3.9 °C -10.3 °C 1010.4 hPa NW 35.4 km/h 35.4 km/h 61% 0 mm myAcuRite W/m2
02:24 -4 °C -10.6 °C 1010.7 hPa West 12.9 km/h 29 km/h 60% 0 mm myAcuRite W/m2
02:29 -4 °C -10.4 °C 1010.7 hPa West 24.1 km/h 27.4 km/h 61% 0 mm myAcuRite W/m2
Historical Data from High Park Village Toronto since August 2017
Compliments of Weather Underground - 2.5 mb